Linda Moran — WDE4187 — position and weather

sailwx.info

Track history (hours):
 
Tides and Currents Weather Stations Pressure Air Temp Water Temp Dewpoint Dewpoint Depression Visibility Wind Speed Wind Dir Waves Ship Positions

Linda Moran

Owner: MORAN TOWING CORP., NEW CANAAN, CT. More information available from US FCC via Universal Licensing System and Coast Guard Vessel Documentation Center.

Last reported at 2016-Feb-07 14:34 UTC. Time now 2016-Feb-07 14:52 UTC.
Position N 29°49' W 093°21'.

Length 156 m; draft 5.2 m.

Type: Ship (hazmat cat D). MMSI: 367349860.

Date/timePositionNaut miles runAvg speedWind from/ knotsBaromVisibWave heightAir tempDewpointWater temp
2016-Feb-07 14:34N 29°49' W 093°21'6 6.4
2016-Feb-07 13:33N 29°42' W 093°19'0 0.5
2016-Feb-07 12:32N 29°42' W 093°19'0 0.0
2016-Feb-07 11:29N 29°42' W 093°19'0 0.0
2016-Feb-07 10:32N 29°42' W 093°19'0 0.0
2016-Feb-07 09:32N 29°42' W 093°19'0 0.0
2016-Feb-07 08:32N 29°42' W 093°19'0 0.0
2016-Feb-07 07:32N 29°42' W 093°19'0 0.0
2016-Feb-07 06:32N 29°42' W 093°19'0 0.0
2016-Feb-07 05:32N 29°42' W 093°19'0 0.0
2016-Feb-07 04:29N 29°42' W 093°19'0 0.0
2016-Feb-07 03:32N 29°42' W 093°19'0 0.0
2016-Feb-06 16:23N 29°42' W 093°19'0 0.1
2016-Feb-06 15:23N 29°42' W 093°19'0 0.0
2016-Feb-06 14:11N 29°42' W 093°19'0 0.0
2016-Feb-06 13:32N 29°42' W 093°19'0 0.0
2016-Feb-06 12:05N 29°42' W 093°19'0 0.1
2016-Feb-06 11:17N 29°42' W 093°19'0 0.0
2016-Feb-06 06:26N 29°42' W 093°19'0 0.0
2016-Feb-06 05:32N 29°42' W 093°19'0 0.0
2016-Feb-06 04:26N 29°42' W 093°19'0 0.0
2016-Feb-06 01:29N 29°42' W 093°19'0 0.0
2016-Feb-05 14:14N 29°42' W 093°19'0 0.1
2016-Feb-05 13:32N 29°42' W 093°19'0 0.0
2016-Feb-05 12:32N 29°42' W 093°19'0 0.1
2016-Feb-05 11:32N 29°42' W 093°19'0 0.1
2016-Feb-05 10:32N 29°42' W 093°19'0 0.0
2016-Feb-05 09:32N 29°42' W 093°19'0 0.1
2016-Feb-05 08:32N 29°42' W 093°19'0 0.0
2016-Feb-05 07:32N 29°42' W 093°19'0 0.0
2016-Feb-05 06:32N 29°42' W 093°19'0 0.0
2016-Feb-05 05:29N 29°42' W 093°19'0 0.0
2016-Feb-05 04:32N 29°42' W 093°19'0 0.1
2016-Feb-05 03:32N 29°42' W 093°19'0 0.0
2016-Feb-05 02:32N 29°42' W 093°19'0 0.0
2016-Feb-05 01:32N 29°42' W 093°19'0 0.0
2016-Feb-05 00:32N 29°42' W 093°19'0 0.0
2016-Feb-04 23:29N 29°42' W 093°19'0 0.0
2016-Feb-04 22:29N 29°42' W 093°19'0 0.0
2016-Feb-04 21:29N 29°42' W 093°19'0 0.0
2016-Feb-04 20:26N 29°42' W 093°19'0 0.0
2016-Feb-04 19:32N 29°42' W 093°19'0 0.0
2016-Feb-04 18:29N 29°42' W 093°19'0 0.0
2016-Feb-04 17:29N 29°42' W 093°19'0 0.0
2016-Feb-04 16:32N 29°42' W 093°19'0 0.0
2016-Feb-04 15:29N 29°42' W 093°19'0 0.0
2016-Feb-04 14:32N 29°42' W 093°19'1 1.0
2016-Feb-04 13:33N 29°41' W 093°19'8 7.9
2016-Feb-04 12:31N 29°37' W 093°27'27 8.0
2016-Feb-04 09:09N 29°46' W 093°56'5 0.2
2016-Feb-03 07:29N 29°51' W 093°58'1 1.5
2016-Feb-03 06:33N 29°49' W 093°58'8 7.7
2016-Feb-03 05:33N 29°44' W 093°52'9 8.8
2016-Feb-03 04:33N 29°36' W 093°48'4 3.7
2016-Feb-03 03:33N 29°35' W 093°43'0 0.3
2016-Feb-03 02:14N 29°36' W 093°43'0 0.0
2016-Feb-03 01:32N 29°36' W 093°43'0 0.0
2016-Feb-03 00:32N 29°36' W 093°43'0 0.0
2016-Feb-02 23:23N 29°36' W 093°43'0 0.0
2016-Feb-02 22:26N 29°36' W 093°43'  
2016-Jan-31 09:30N 29°15' W 093°40'29 9.4
2016-Jan-31 06:22N 28°49' W 093°24'  
Track history (hours):
 
Tides and Currents Weather Stations Pressure Air Temp Water Temp Dewpoint Dewpoint Depression Visibility Wind Speed Wind Dir Waves Ship Positions

Linda Moran

Owner: MORAN TOWING CORP., NEW CANAAN, CT. More information available from US FCC via Universal Licensing System and Coast Guard Vessel Documentation Center.

Last reported at 2016-Feb-07 14:34 UTC. Time now 2016-Feb-07 14:52 UTC.
Position N 29°49' W 093°21'.

Length 156 m; draft 5.2 m.

Type: Ship (hazmat cat D). MMSI: 367349860.

Date/timePositionNaut miles runAvg speedWind from/ knotsBaromVisibWave heightAir tempDewpointWater temp
2016-Feb-07 14:34N 29°49' W 093°21'6 6.4
2016-Feb-07 13:33N 29°42' W 093°19'0 0.5
2016-Feb-07 12:32N 29°42' W 093°19'0 0.0
2016-Feb-07 11:29N 29°42' W 093°19'0 0.0
2016-Feb-07 10:32N 29°42' W 093°19'0 0.0
2016-Feb-07 09:32N 29°42' W 093°19'0 0.0
2016-Feb-07 08:32N 29°42' W 093°19'0 0.0
2016-Feb-07 07:32N 29°42' W 093°19'0 0.0
2016-Feb-07 06:32N 29°42' W 093°19'0 0.0
2016-Feb-07 05:32N 29°42' W 093°19'0 0.0
2016-Feb-07 04:29N 29°42' W 093°19'0 0.0
2016-Feb-07 03:32N 29°42' W 093°19'0 0.0
2016-Feb-06 16:23N 29°42' W 093°19'0 0.1
2016-Feb-06 15:23N 29°42' W 093°19'0 0.0
2016-Feb-06 14:11N 29°42' W 093°19'0 0.0
2016-Feb-06 13:32N 29°42' W 093°19'0 0.0
2016-Feb-06 12:05N 29°42' W 093°19'0 0.1
2016-Feb-06 11:17N 29°42' W 093°19'0 0.0
2016-Feb-06 06:26N 29°42' W 093°19'0 0.0
2016-Feb-06 05:32N 29°42' W 093°19'0 0.0
2016-Feb-06 04:26N 29°42' W 093°19'0 0.0
2016-Feb-06 01:29N 29°42' W 093°19'0 0.0
2016-Feb-05 14:14N 29°42' W 093°19'0 0.1
2016-Feb-05 13:32N 29°42' W 093°19'0 0.0
2016-Feb-05 12:32N 29°42' W 093°19'0 0.1
2016-Feb-05 11:32N 29°42' W 093°19'0 0.1
2016-Feb-05 10:32N 29°42' W 093°19'0 0.0
2016-Feb-05 09:32N 29°42' W 093°19'0 0.1
2016-Feb-05 08:32N 29°42' W 093°19'0 0.0
2016-Feb-05 07:32N 29°42' W 093°19'0 0.0
2016-Feb-05 06:32N 29°42' W 093°19'0 0.0
2016-Feb-05 05:29N 29°42' W 093°19'0 0.0
2016-Feb-05 04:32N 29°42' W 093°19'0 0.1
2016-Feb-05 03:32N 29°42' W 093°19'0 0.0
2016-Feb-05 02:32N 29°42' W 093°19'0 0.0
2016-Feb-05 01:32N 29°42' W 093°19'0 0.0
2016-Feb-05 00:32N 29°42' W 093°19'0 0.0
2016-Feb-04 23:29N 29°42' W 093°19'0 0.0
2016-Feb-04 22:29N 29°42' W 093°19'0 0.0
2016-Feb-04 21:29N 29°42' W 093°19'0 0.0
2016-Feb-04 20:26N 29°42' W 093°19'0 0.0
2016-Feb-04 19:32N 29°42' W 093°19'0 0.0
2016-Feb-04 18:29N 29°42' W 093°19'0 0.0
2016-Feb-04 17:29N 29°42' W 093°19'0 0.0
2016-Feb-04 16:32N 29°42' W 093°19'0 0.0
2016-Feb-04 15:29N 29°42' W 093°19'0 0.0
2016-Feb-04 14:32N 29°42' W 093°19'1 1.0
2016-Feb-04 13:33N 29°41' W 093°19'8 7.9
2016-Feb-04 12:31N 29°37' W 093°27'27 8.0
2016-Feb-04 09:09N 29°46' W 093°56'5 0.2
2016-Feb-03 07:29N 29°51' W 093°58'1 1.5
2016-Feb-03 06:33N 29°49' W 093°58'8 7.7
2016-Feb-03 05:33N 29°44' W 093°52'9 8.8
2016-Feb-03 04:33N 29°36' W 093°48'4 3.7
2016-Feb-03 03:33N 29°35' W 093°43'0 0.3
2016-Feb-03 02:14N 29°36' W 093°43'0 0.0
2016-Feb-03 01:32N 29°36' W 093°43'0 0.0
2016-Feb-03 00:32N 29°36' W 093°43'0 0.0
2016-Feb-02 23:23N 29°36' W 093°43'0 0.0
2016-Feb-02 22:26N 29°36' W 093°43'  
2016-Jan-31 09:30N 29°15' W 093°40'29 9.4
2016-Jan-31 06:22N 28°49' W 093°24'  

Dump ship's entire track history